sensor_id;sensor_type;location;lat;lon;timestamp;P1;durP1;ratioP1;P2;durP2;ratioP2
30647;SDS011;17683;53.360;9.736;2024-02-14T00:00:12;3.53;;;2.40;;
30647;SDS011;17683;53.360;9.736;2024-02-14T00:02:44;8.68;;;2.15;;
30647;SDS011;17683;53.360;9.736;2024-02-14T00:05:10;5.55;;;2.13;;
30647;SDS011;17683;53.360;9.736;2024-02-14T00:07:37;6.45;;;2.22;;
30647;SDS011;17683;53.360;9.736;2024-02-14T00:10:04;5.15;;;2.30;;
30647;SDS011;17683;53.360;9.736;2024-02-14T00:12:34;5.05;;;2.20;;
30647;SDS011;17683;53.360;9.736;2024-02-14T00:15:00;4.40;;;1.90;;
30647;SDS011;17683;53.360;9.736;2024-02-14T00:17:31;4.30;;;1.90;;
30647;SDS011;17683;53.360;9.736;2024-02-14T00:19:57;3.92;;;2.20;;
30647;SDS011;17683;53.360;9.736;2024-02-14T00:22:23;6.20;;;3.33;;
30647;SDS011;17683;53.360;9.736;2024-02-14T00:24:49;7.10;;;2.20;;
30647;SDS011;17683;53.360;9.736;2024-02-14T00:27:15;3.08;;;2.63;;
30647;SDS011;17683;53.360;9.736;2024-02-14T00:29:42;4.45;;;2.13;;
30647;SDS011;17683;53.360;9.736;2024-02-14T00:32:10;2.88;;;1.83;;
30647;SDS011;17683;53.360;9.736;2024-02-14T00:34:37;3.55;;;2.33;;
30647;SDS011;17683;53.360;9.736;2024-02-14T00:37:02;3.17;;;2.00;;
30647;SDS011;17683;53.360;9.736;2024-02-14T00:39:28;5.88;;;2.00;;
30647;SDS011;17683;53.360;9.736;2024-02-14T00:41:54;5.90;;;2.08;;
30647;SDS011;17683;53.360;9.736;2024-02-14T00:44:21;5.55;;;2.38;;
30647;SDS011;17683;53.360;9.736;2024-02-14T00:46:47;4.03;;;2.08;;
30647;SDS011;17683;53.360;9.736;2024-02-14T00:49:13;5.43;;;2.60;;
30647;SDS011;17683;53.360;9.736;2024-02-14T00:51:40;7.00;;;2.10;;
30647;SDS011;17683;53.360;9.736;2024-02-14T00:54:06;8.60;;;2.10;;
30647;SDS011;17683;53.360;9.736;2024-02-14T00:56:33;4.78;;;2.28;;
30647;SDS011;17683;53.360;9.736;2024-02-14T00:58:59;7.07;;;2.08;;
30647;SDS011;17683;53.360;9.736;2024-02-14T01:01:25;2.90;;;2.00;;
30647;SDS011;17683;53.360;9.736;2024-02-14T01:03:50;4.88;;;2.15;;
30647;SDS011;17683;53.360;9.736;2024-02-14T01:06:16;3.55;;;2.28;;
30647;SDS011;17683;53.360;9.736;2024-02-14T01:08:43;3.63;;;2.15;;
30647;SDS011;17683;53.360;9.736;2024-02-14T01:11:09;3.80;;;2.50;;
30647;SDS011;17683;53.360;9.736;2024-02-14T01:13:35;6.07;;;2.40;;
30647;SDS011;17683;53.360;9.736;2024-02-14T01:16:02;5.30;;;2.38;;
30647;SDS011;17683;53.360;9.736;2024-02-14T01:18:29;9.70;;;2.85;;
30647;SDS011;17683;53.360;9.736;2024-02-14T01:20:55;6.95;;;2.28;;
30647;SDS011;17683;53.360;9.736;2024-02-14T01:23:21;4.55;;;2.53;;
30647;SDS011;17683;53.360;9.736;2024-02-14T01:25:47;3.83;;;2.53;;
30647;SDS011;17683;53.360;9.736;2024-02-14T01:28:12;9.23;;;3.22;;
30647;SDS011;17683;53.360;9.736;2024-02-14T01:30:38;3.40;;;2.75;;
30647;SDS011;17683;53.360;9.736;2024-02-14T01:33:04;4.20;;;2.63;;
30647;SDS011;17683;53.360;9.736;2024-02-14T01:35:30;6.70;;;2.90;;
30647;SDS011;17683;53.360;9.736;2024-02-14T01:37:56;5.22;;;2.42;;
30647;SDS011;17683;53.360;9.736;2024-02-14T01:40:22;5.22;;;2.50;;
30647;SDS011;17683;53.360;9.736;2024-02-14T01:42:48;4.32;;;2.58;;
30647;SDS011;17683;53.360;9.736;2024-02-14T01:45:14;3.20;;;2.28;;
30647;SDS011;17683;53.360;9.736;2024-02-14T01:47:40;5.70;;;3.10;;
30647;SDS011;17683;53.360;9.736;2024-02-14T01:50:07;7.32;;;3.13;;
30647;SDS011;17683;53.360;9.736;2024-02-14T01:52:34;4.43;;;3.10;;
30647;SDS011;17683;53.360;9.736;2024-02-14T01:55:01;7.22;;;3.50;;
30647;SDS011;17683;53.360;9.736;2024-02-14T01:57:30;4.00;;;3.00;;
30647;SDS011;17683;53.360;9.736;2024-02-14T01:59:56;4.65;;;2.78;;
30647;SDS011;17683;53.360;9.736;2024-02-14T02:02:25;4.35;;;2.85;;
30647;SDS011;17683;53.360;9.736;2024-02-14T02:04:52;6.70;;;3.20;;
30647;SDS011;17683;53.360;9.736;2024-02-14T02:07:17;8.50;;;3.25;;
30647;SDS011;17683;53.360;9.736;2024-02-14T02:09:45;8.05;;;2.88;;
30647;SDS011;17683;53.360;9.736;2024-02-14T02:12:11;6.03;;;2.70;;
30647;SDS011;17683;53.360;9.736;2024-02-14T02:14:36;6.15;;;3.03;;
30647;SDS011;17683;53.360;9.736;2024-02-14T02:17:02;5.05;;;3.17;;
30647;SDS011;17683;53.360;9.736;2024-02-14T02:19:32;5.00;;;2.95;;
30647;SDS011;17683;53.360;9.736;2024-02-14T02:21:59;5.28;;;2.50;;
30647;SDS011;17683;53.360;9.736;2024-02-14T02:24:25;3.40;;;3.10;;
30647;SDS011;17683;53.360;9.736;2024-02-14T02:26:51;5.75;;;3.40;;
30647;SDS011;17683;53.360;9.736;2024-02-14T02:29:17;6.38;;;3.10;;
30647;SDS011;17683;53.360;9.736;2024-02-14T02:31:44;3.60;;;2.83;;
30647;SDS011;17683;53.360;9.736;2024-02-14T02:34:11;4.28;;;3.20;;
30647;SDS011;17683;53.360;9.736;2024-02-14T02:36:37;7.75;;;3.20;;
30647;SDS011;17683;53.360;9.736;2024-02-14T02:39:04;4.55;;;2.70;;
30647;SDS011;17683;53.360;9.736;2024-02-14T02:41:30;11.48;;;3.30;;
30647;SDS011;17683;53.360;9.736;2024-02-14T02:43:58;6.43;;;2.92;;
30647;SDS011;17683;53.360;9.736;2024-02-14T02:46:24;4.07;;;3.53;;
30647;SDS011;17683;53.360;9.736;2024-02-14T02:48:51;3.40;;;2.83;;
30647;SDS011;17683;53.360;9.736;2024-02-14T02:51:19;3.70;;;2.60;;
30647;SDS011;17683;53.360;9.736;2024-02-14T02:53:46;9.60;;;3.17;;
30647;SDS011;17683;53.360;9.736;2024-02-14T02:56:12;6.60;;;2.97;;
30647;SDS011;17683;53.360;9.736;2024-02-14T02:58:40;5.88;;;3.45;;
30647;SDS011;17683;53.360;9.736;2024-02-14T03:01:08;8.68;;;3.15;;
30647;SDS011;17683;53.360;9.736;2024-02-14T03:03:35;7.68;;;3.22;;
30647;SDS011;17683;53.360;9.736;2024-02-14T03:06:01;5.43;;;3.00;;
30647;SDS011;17683;53.360;9.736;2024-02-14T03:08:29;5.03;;;3.25;;
30647;SDS011;17683;53.360;9.736;2024-02-14T03:10:55;5.50;;;3.15;;
30647;SDS011;17683;53.360;9.736;2024-02-14T03:13:24;5.30;;;3.28;;
30647;SDS011;17683;53.360;9.736;2024-02-14T03:15:51;7.72;;;3.88;;
30647;SDS011;17683;53.360;9.736;2024-02-14T03:18:17;5.10;;;3.40;;
30647;SDS011;17683;53.360;9.736;2024-02-14T03:20:43;5.85;;;3.28;;
30647;SDS011;17683;53.360;9.736;2024-02-14T03:23:09;8.95;;;3.03;;
30647;SDS011;17683;53.360;9.736;2024-02-14T03:25:35;11.18;;;3.40;;
30647;SDS011;17683;53.360;9.736;2024-02-14T03:28:02;6.57;;;3.33;;
30647;SDS011;17683;53.360;9.736;2024-02-14T03:30:30;4.18;;;2.90;;
30647;SDS011;17683;53.360;9.736;2024-02-14T03:32:56;7.28;;;3.22;;
30647;SDS011;17683;53.360;9.736;2024-02-14T03:35:21;8.48;;;3.90;;
30647;SDS011;17683;53.360;9.736;2024-02-14T03:37:48;4.78;;;3.17;;
30647;SDS011;17683;53.360;9.736;2024-02-14T03:40:17;7.13;;;3.15;;
30647;SDS011;17683;53.360;9.736;2024-02-14T03:42:45;7.45;;;3.80;;
30647;SDS011;17683;53.360;9.736;2024-02-14T03:45:11;6.25;;;3.33;;
30647;SDS011;17683;53.360;9.736;2024-02-14T03:47:37;5.70;;;3.63;;
30647;SDS011;17683;53.360;9.736;2024-02-14T03:50:07;8.20;;;3.38;;
30647;SDS011;17683;53.360;9.736;2024-02-14T03:52:33;5.72;;;3.33;;
30647;SDS011;17683;53.360;9.736;2024-02-14T03:55:02;7.57;;;3.55;;
30647;SDS011;17683;53.360;9.736;2024-02-14T03:57:28;6.90;;;2.95;;
30647;SDS011;17683;53.360;9.736;2024-02-14T03:59:54;6.10;;;3.38;;
30647;SDS011;17683;53.360;9.736;2024-02-14T04:02:23;4.57;;;3.20;;
30647;SDS011;17683;53.360;9.736;2024-02-14T04:04:49;8.38;;;3.42;;
30647;SDS011;17683;53.360;9.736;2024-02-14T04:07:15;8.57;;;3.53;;
30647;SDS011;17683;53.360;9.736;2024-02-14T04:09:40;7.00;;;4.05;;
30647;SDS011;17683;53.360;9.736;2024-02-14T04:12:06;6.30;;;3.17;;
30647;SDS011;17683;53.360;9.736;2024-02-14T04:14:33;7.97;;;3.72;;
30647;SDS011;17683;53.360;9.736;2024-02-14T04:16:59;8.75;;;3.13;;
30647;SDS011;17683;53.360;9.736;2024-02-14T04:19:24;11.05;;;4.50;;
30647;SDS011;17683;53.360;9.736;2024-02-14T04:21:50;11.90;;;3.67;;
30647;SDS011;17683;53.360;9.736;2024-02-14T04:24:16;6.40;;;3.20;;
30647;SDS011;17683;53.360;9.736;2024-02-14T04:26:42;8.68;;;3.70;;
30647;SDS011;17683;53.360;9.736;2024-02-14T04:29:08;12.63;;;4.40;;
30647;SDS011;17683;53.360;9.736;2024-02-14T04:31:34;6.85;;;4.20;;
30647;SDS011;17683;53.360;9.736;2024-02-14T04:33:59;6.32;;;3.92;;
30647;SDS011;17683;53.360;9.736;2024-02-14T04:36:25;7.47;;;4.03;;
30647;SDS011;17683;53.360;9.736;2024-02-14T04:38:51;10.60;;;4.15;;
30647;SDS011;17683;53.360;9.736;2024-02-14T04:41:18;7.25;;;3.83;;
30647;SDS011;17683;53.360;9.736;2024-02-14T04:43:44;5.97;;;3.83;;
30647;SDS011;17683;53.360;9.736;2024-02-14T04:46:09;7.32;;;3.90;;
30647;SDS011;17683;53.360;9.736;2024-02-14T04:48:36;8.70;;;4.90;;
30647;SDS011;17683;53.360;9.736;2024-02-14T04:51:02;6.57;;;4.38;;
30647;SDS011;17683;53.360;9.736;2024-02-14T04:53:30;5.75;;;4.28;;
30647;SDS011;17683;53.360;9.736;2024-02-14T04:55:56;6.45;;;4.45;;
30647;SDS011;17683;53.360;9.736;2024-02-14T04:58:22;5.70;;;3.92;;
30647;SDS011;17683;53.360;9.736;2024-02-14T05:00:48;6.13;;;4.53;;
30647;SDS011;17683;53.360;9.736;2024-02-14T05:03:13;5.32;;;4.25;;
30647;SDS011;17683;53.360;9.736;2024-02-14T05:05:40;7.05;;;4.60;;
30647;SDS011;17683;53.360;9.736;2024-02-14T05:08:06;5.60;;;3.80;;
30647;SDS011;17683;53.360;9.736;2024-02-14T05:10:32;8.25;;;4.95;;
30647;SDS011;17683;53.360;9.736;2024-02-14T05:12:58;5.63;;;4.45;;
30647;SDS011;17683;53.360;9.736;2024-02-14T05:15:24;6.05;;;4.25;;
30647;SDS011;17683;53.360;9.736;2024-02-14T05:17:50;5.72;;;4.10;;
30647;SDS011;17683;53.360;9.736;2024-02-14T05:20:16;6.05;;;4.55;;
30647;SDS011;17683;53.360;9.736;2024-02-14T05:22:42;5.85;;;4.78;;
30647;SDS011;17683;53.360;9.736;2024-02-14T05:25:08;5.47;;;4.85;;
30647;SDS011;17683;53.360;9.736;2024-02-14T05:27:35;5.97;;;4.05;;
30647;SDS011;17683;53.360;9.736;2024-02-14T05:30:02;9.25;;;4.00;;
30647;SDS011;17683;53.360;9.736;2024-02-14T05:32:30;7.28;;;4.55;;
30647;SDS011;17683;53.360;9.736;2024-02-14T05:34:57;4.85;;;4.13;;
30647;SDS011;17683;53.360;9.736;2024-02-14T05:37:23;4.88;;;4.30;;
30647;SDS011;17683;53.360;9.736;2024-02-14T05:39:48;6.32;;;4.25;;
30647;SDS011;17683;53.360;9.736;2024-02-14T05:42:14;4.53;;;4.07;;
30647;SDS011;17683;53.360;9.736;2024-02-14T05:44:41;6.40;;;4.47;;
30647;SDS011;17683;53.360;9.736;2024-02-14T05:47:08;6.35;;;4.50;;
30647;SDS011;17683;53.360;9.736;2024-02-14T05:49:35;5.72;;;4.25;;
30647;SDS011;17683;53.360;9.736;2024-02-14T05:52:00;6.20;;;4.63;;
30647;SDS011;17683;53.360;9.736;2024-02-14T05:54:26;6.13;;;4.72;;
30647;SDS011;17683;53.360;9.736;2024-02-14T05:56:52;7.43;;;4.38;;
30647;SDS011;17683;53.360;9.736;2024-02-14T05:59:18;7.80;;;4.60;;
30647;SDS011;17683;53.360;9.736;2024-02-14T06:01:43;5.70;;;4.43;;
30647;SDS011;17683;53.360;9.736;2024-02-14T06:04:09;8.00;;;5.30;;
30647;SDS011;17683;53.360;9.736;2024-02-14T06:06:35;9.90;;;4.35;;
30647;SDS011;17683;53.360;9.736;2024-02-14T06:09:00;5.38;;;3.97;;
30647;SDS011;17683;53.360;9.736;2024-02-14T06:11:27;5.47;;;4.10;;
30647;SDS011;17683;53.360;9.736;2024-02-14T06:13:53;7.25;;;5.47;;
30647;SDS011;17683;53.360;9.736;2024-02-14T06:16:19;5.38;;;4.47;;
30647;SDS011;17683;53.360;9.736;2024-02-14T06:18:45;6.72;;;4.25;;
30647;SDS011;17683;53.360;9.736;2024-02-14T06:21:10;7.65;;;4.95;;
30647;SDS011;17683;53.360;9.736;2024-02-14T06:23:36;5.95;;;4.93;;
30647;SDS011;17683;53.360;9.736;2024-02-14T06:26:03;5.82;;;4.20;;
30647;SDS011;17683;53.360;9.736;2024-02-14T06:28:29;7.65;;;4.70;;
30647;SDS011;17683;53.360;9.736;2024-02-14T06:30:55;6.30;;;4.40;;
30647;SDS011;17683;53.360;9.736;2024-02-14T06:33:21;4.97;;;4.30;;
30647;SDS011;17683;53.360;9.736;2024-02-14T06:35:46;6.10;;;4.40;;
30647;SDS011;17683;53.360;9.736;2024-02-14T06:38:12;7.60;;;4.82;;
30647;SDS011;17683;53.360;9.736;2024-02-14T06:40:38;6.28;;;5.10;;
30647;SDS011;17683;53.360;9.736;2024-02-14T06:43:04;6.88;;;4.32;;
30647;SDS011;17683;53.360;9.736;2024-02-14T06:45:31;6.95;;;4.45;;
30647;SDS011;17683;53.360;9.736;2024-02-14T06:47:57;7.60;;;4.05;;
30647;SDS011;17683;53.360;9.736;2024-02-14T06:50:23;5.60;;;4.45;;
30647;SDS011;17683;53.360;9.736;2024-02-14T06:52:53;6.38;;;4.75;;
30647;SDS011;17683;53.360;9.736;2024-02-14T06:55:19;6.07;;;4.35;;
30647;SDS011;17683;53.360;9.736;2024-02-14T06:57:45;5.05;;;3.95;;
30647;SDS011;17683;53.360;9.736;2024-02-14T07:00:10;7.35;;;4.43;;
30647;SDS011;17683;53.360;9.736;2024-02-14T07:02:37;6.20;;;4.55;;
30647;SDS011;17683;53.360;9.736;2024-02-14T07:05:02;6.72;;;4.65;;
30647;SDS011;17683;53.360;9.736;2024-02-14T07:07:28;5.45;;;4.40;;
30647;SDS011;17683;53.360;9.736;2024-02-14T07:09:54;5.78;;;4.50;;
30647;SDS011;17683;53.360;9.736;2024-02-14T07:12:20;7.55;;;5.28;;
30647;SDS011;17683;53.360;9.736;2024-02-14T07:14:46;6.60;;;4.95;;
30647;SDS011;17683;53.360;9.736;2024-02-14T07:17:12;9.90;;;6.70;;
30647;SDS011;17683;53.360;9.736;2024-02-14T07:19:38;6.32;;;5.10;;
30647;SDS011;17683;53.360;9.736;2024-02-14T07:22:04;6.07;;;4.72;;
30647;SDS011;17683;53.360;9.736;2024-02-14T07:24:29;12.48;;;7.55;;
30647;SDS011;17683;53.360;9.736;2024-02-14T07:26:55;8.48;;;6.15;;
30647;SDS011;17683;53.360;9.736;2024-02-14T07:29:22;14.77;;;9.15;;
30647;SDS011;17683;53.360;9.736;2024-02-14T07:31:47;7.18;;;5.95;;
30647;SDS011;17683;53.360;9.736;2024-02-14T07:34:13;6.57;;;4.95;;
30647;SDS011;17683;53.360;9.736;2024-02-14T07:36:39;5.93;;;4.80;;
30647;SDS011;17683;53.360;9.736;2024-02-14T07:39:06;6.93;;;5.03;;
30647;SDS011;17683;53.360;9.736;2024-02-14T07:41:32;6.55;;;4.80;;
30647;SDS011;17683;53.360;9.736;2024-02-14T07:43:57;5.60;;;4.68;;
30647;SDS011;17683;53.360;9.736;2024-02-14T07:46:23;4.97;;;4.22;;
30647;SDS011;17683;53.360;9.736;2024-02-14T07:48:51;5.07;;;4.28;;
30647;SDS011;17683;53.360;9.736;2024-02-14T07:51:18;8.05;;;5.15;;
30647;SDS011;17683;53.360;9.736;2024-02-14T07:53:44;5.32;;;4.72;;
30647;SDS011;17683;53.360;9.736;2024-02-14T07:56:10;6.10;;;5.20;;
30647;SDS011;17683;53.360;9.736;2024-02-14T07:58:36;7.82;;;4.60;;
30647;SDS011;17683;53.360;9.736;2024-02-14T08:01:02;6.72;;;5.40;;
30647;SDS011;17683;53.360;9.736;2024-02-14T08:03:29;6.25;;;4.43;;
30647;SDS011;17683;53.360;9.736;2024-02-14T08:05:55;6.18;;;4.68;;
30647;SDS011;17683;53.360;9.736;2024-02-14T08:08:20;5.72;;;4.40;;
30647;SDS011;17683;53.360;9.736;2024-02-14T08:10:46;4.88;;;4.20;;
30647;SDS011;17683;53.360;9.736;2024-02-14T08:13:12;5.53;;;4.45;;
30647;SDS011;17683;53.360;9.736;2024-02-14T08:15:40;6.20;;;5.03;;
30647;SDS011;17683;53.360;9.736;2024-02-14T08:18:06;4.43;;;3.90;;
30647;SDS011;17683;53.360;9.736;2024-02-14T08:20:32;5.05;;;4.05;;
30647;SDS011;17683;53.360;9.736;2024-02-14T08:22:58;6.50;;;4.93;;
30647;SDS011;17683;53.360;9.736;2024-02-14T08:25:24;5.35;;;4.38;;
30647;SDS011;17683;53.360;9.736;2024-02-14T08:27:51;8.10;;;5.20;;
30647;SDS011;17683;53.360;9.736;2024-02-14T08:30:17;5.53;;;4.50;;
30647;SDS011;17683;53.360;9.736;2024-02-14T08:32:44;5.93;;;4.68;;
30647;SDS011;17683;53.360;9.736;2024-02-14T08:35:10;6.25;;;4.55;;
30647;SDS011;17683;53.360;9.736;2024-02-14T08:37:38;4.80;;;4.28;;
30647;SDS011;17683;53.360;9.736;2024-02-14T08:40:05;5.57;;;4.80;;
30647;SDS011;17683;53.360;9.736;2024-02-14T08:42:35;6.47;;;5.18;;
30647;SDS011;17683;53.360;9.736;2024-02-14T08:45:01;6.75;;;5.55;;
30647;SDS011;17683;53.360;9.736;2024-02-14T08:47:27;6.70;;;5.32;;
30647;SDS011;17683;53.360;9.736;2024-02-14T08:49:52;6.95;;;5.47;;
30647;SDS011;17683;53.360;9.736;2024-02-14T08:52:18;6.38;;;4.85;;
30647;SDS011;17683;53.360;9.736;2024-02-14T08:54:44;6.85;;;5.20;;
30647;SDS011;17683;53.360;9.736;2024-02-14T08:57:10;6.93;;;5.10;;
30647;SDS011;17683;53.360;9.736;2024-02-14T08:59:36;6.72;;;5.35;;
30647;SDS011;17683;53.360;9.736;2024-02-14T09:02:02;5.72;;;5.13;;
30647;SDS011;17683;53.360;9.736;2024-02-14T09:04:28;6.25;;;5.25;;
30647;SDS011;17683;53.360;9.736;2024-02-14T09:06:54;6.28;;;5.00;;
30647;SDS011;17683;53.360;9.736;2024-02-14T09:09:19;6.05;;;4.95;;
30647;SDS011;17683;53.360;9.736;2024-02-14T09:11:45;5.65;;;5.15;;
30647;SDS011;17683;53.360;9.736;2024-02-14T09:14:12;5.22;;;4.55;;
30647;SDS011;17683;53.360;9.736;2024-02-14T09:16:37;6.10;;;5.32;;
30647;SDS011;17683;53.360;9.736;2024-02-14T09:19:04;9.20;;;7.32;;
30647;SDS011;17683;53.360;9.736;2024-02-14T09:21:32;7.80;;;6.65;;
30647;SDS011;17683;53.360;9.736;2024-02-14T09:24:01;6.93;;;6.22;;
30647;SDS011;17683;53.360;9.736;2024-02-14T09:26:28;8.93;;;5.53;;
30647;SDS011;17683;53.360;9.736;2024-02-14T09:28:54;8.30;;;6.97;;
30647;SDS011;17683;53.360;9.736;2024-02-14T09:31:20;7.30;;;5.88;;
30647;SDS011;17683;53.360;9.736;2024-02-14T09:33:47;6.40;;;5.78;;
30647;SDS011;17683;53.360;9.736;2024-02-14T09:36:14;5.95;;;5.00;;
30647;SDS011;17683;53.360;9.736;2024-02-14T09:38:40;5.25;;;4.43;;
30647;SDS011;17683;53.360;9.736;2024-02-14T09:41:12;5.70;;;5.10;;
30647;SDS011;17683;53.360;9.736;2024-02-14T09:43:45;5.40;;;4.82;;
30647;SDS011;17683;53.360;9.736;2024-02-14T09:46:14;4.50;;;4.10;;
30647;SDS011;17683;53.360;9.736;2024-02-14T09:48:43;10.35;;;4.75;;
30647;SDS011;17683;53.360;9.736;2024-02-14T09:51:10;6.90;;;5.50;;
30647;SDS011;17683;53.360;9.736;2024-02-14T09:53:38;7.18;;;5.65;;
30647;SDS011;17683;53.360;9.736;2024-02-14T09:56:05;11.93;;;5.07;;
30647;SDS011;17683;53.360;9.736;2024-02-14T09:58:31;5.93;;;4.50;;
30647;SDS011;17683;53.360;9.736;2024-02-14T10:00:57;5.60;;;4.63;;
30647;SDS011;17683;53.360;9.736;2024-02-14T10:03:23;5.93;;;4.90;;
30647;SDS011;17683;53.360;9.736;2024-02-14T10:05:49;5.20;;;4.70;;
30647;SDS011;17683;53.360;9.736;2024-02-14T10:08:15;4.60;;;4.13;;
30647;SDS011;17683;53.360;9.736;2024-02-14T10:10:42;4.97;;;4.43;;
30647;SDS011;17683;53.360;9.736;2024-02-14T10:13:08;5.88;;;4.72;;
30647;SDS011;17683;53.360;9.736;2024-02-14T10:15:35;5.35;;;4.10;;
30647;SDS011;17683;53.360;9.736;2024-02-14T10:18:01;4.75;;;4.25;;
30647;SDS011;17683;53.360;9.736;2024-02-14T10:20:28;5.55;;;4.50;;
30647;SDS011;17683;53.360;9.736;2024-02-14T10:23:02;4.90;;;4.40;;
30647;SDS011;17683;53.360;9.736;2024-02-14T10:25:28;5.82;;;5.07;;
30647;SDS011;17683;53.360;9.736;2024-02-14T10:27:55;5.30;;;4.80;;
30647;SDS011;17683;53.360;9.736;2024-02-14T10:30:20;5.20;;;4.70;;
30647;SDS011;17683;53.360;9.736;2024-02-14T10:32:46;6.43;;;5.18;;
30647;SDS011;17683;53.360;9.736;2024-02-14T10:35:14;5.90;;;5.10;;
30647;SDS011;17683;53.360;9.736;2024-02-14T10:37:41;5.85;;;4.82;;
30647;SDS011;17683;53.360;9.736;2024-02-14T10:40:07;5.53;;;4.97;;
30647;SDS011;17683;53.360;9.736;2024-02-14T10:42:36;6.82;;;5.65;;
30647;SDS011;17683;53.360;9.736;2024-02-14T10:45:02;6.30;;;5.70;;
30647;SDS011;17683;53.360;9.736;2024-02-14T10:47:34;6.72;;;5.72;;
30647;SDS011;17683;53.360;9.736;2024-02-14T10:50:03;8.57;;;5.40;;
30647;SDS011;17683;53.360;9.736;2024-02-14T10:52:34;8.98;;;6.20;;
30647;SDS011;17683;53.360;9.736;2024-02-14T10:55:04;5.72;;;4.80;;
30647;SDS011;17683;53.360;9.736;2024-02-14T10:57:30;5.70;;;5.20;;
30647;SDS011;17683;53.360;9.736;2024-02-14T10:59:57;6.45;;;5.57;;
30647;SDS011;17683;53.360;9.736;2024-02-14T11:02:26;5.50;;;4.90;;
30647;SDS011;17683;53.360;9.736;2024-02-14T11:04:55;8.75;;;4.75;;
30647;SDS011;17683;53.360;9.736;2024-02-14T11:07:22;5.38;;;4.78;;
30647;SDS011;17683;53.360;9.736;2024-02-14T11:09:48;5.15;;;4.65;;
30647;SDS011;17683;53.360;9.736;2024-02-14T11:12:35;6.43;;;4.97;;
30647;SDS011;17683;53.360;9.736;2024-02-14T11:15:22;6.90;;;5.03;;
30647;SDS011;17683;53.360;9.736;2024-02-14T11:18:03;4.78;;;4.28;;
30647;SDS011;17683;53.360;9.736;2024-02-14T11:20:36;7.55;;;5.03;;
30647;SDS011;17683;53.360;9.736;2024-02-14T11:23:03;6.53;;;5.82;;
30647;SDS011;17683;53.360;9.736;2024-02-14T11:25:39;5.95;;;5.15;;
30647;SDS011;17683;53.360;9.736;2024-02-14T11:30:49;7.50;;;5.47;;
30647;SDS011;17683;53.360;9.736;2024-02-14T11:33:24;10.15;;;5.65;;
30647;SDS011;17683;53.360;9.736;2024-02-14T11:35:52;9.13;;;7.30;;
30647;SDS011;17683;53.360;9.736;2024-02-14T11:38:18;7.72;;;6.35;;
30647;SDS011;17683;53.360;9.736;2024-02-14T11:40:45;7.97;;;6.63;;
30647;SDS011;17683;53.360;9.736;2024-02-14T11:43:17;10.50;;;8.60;;
30647;SDS011;17683;53.360;9.736;2024-02-14T11:45:47;11.95;;;8.57;;
30647;SDS011;17683;53.360;9.736;2024-02-14T11:48:17;9.45;;;7.97;;
30647;SDS011;17683;53.360;9.736;2024-02-14T11:50:44;12.27;;;9.20;;
30647;SDS011;17683;53.360;9.736;2024-02-14T11:53:14;11.85;;;8.70;;
30647;SDS011;17683;53.360;9.736;2024-02-14T11:55:46;16.60;;;10.50;;
30647;SDS011;17683;53.360;9.736;2024-02-14T11:58:13;16.77;;;10.48;;
30647;SDS011;17683;53.360;9.736;2024-02-14T12:00:41;11.20;;;9.60;;
30647;SDS011;17683;53.360;9.736;2024-02-14T12:03:12;13.60;;;10.07;;
30647;SDS011;17683;53.360;9.736;2024-02-14T12:05:40;13.73;;;9.85;;
30647;SDS011;17683;53.360;9.736;2024-02-14T12:08:09;16.25;;;10.30;;
30647;SDS011;17683;53.360;9.736;2024-02-14T12:10:35;14.57;;;10.95;;
30647;SDS011;17683;53.360;9.736;2024-02-14T12:13:06;15.77;;;9.82;;
30647;SDS011;17683;53.360;9.736;2024-02-14T12:15:37;15.32;;;10.43;;
30647;SDS011;17683;53.360;9.736;2024-02-14T12:18:08;15.43;;;10.27;;
30647;SDS011;17683;53.360;9.736;2024-02-14T12:20:35;12.55;;;9.75;;
30647;SDS011;17683;53.360;9.736;2024-02-14T12:23:02;14.00;;;10.88;;
30647;SDS011;17683;53.360;9.736;2024-02-14T12:25:29;14.90;;;10.90;;
30647;SDS011;17683;53.360;9.736;2024-02-14T12:27:58;13.00;;;10.32;;
30647;SDS011;17683;53.360;9.736;2024-02-14T12:35:36;10.88;;;9.38;;
30647;SDS011;17683;53.360;9.736;2024-02-14T12:38:07;12.13;;;8.75;;
30647;SDS011;17683;53.360;9.736;2024-02-14T12:40:36;11.63;;;7.68;;
30647;SDS011;17683;53.360;9.736;2024-02-14T12:43:02;9.85;;;7.82;;
30647;SDS011;17683;53.360;9.736;2024-02-14T12:45:30;11.55;;;8.50;;
30647;SDS011;17683;53.360;9.736;2024-02-14T12:47:56;11.60;;;7.78;;
30647;SDS011;17683;53.360;9.736;2024-02-14T12:50:22;9.15;;;7.63;;
30647;SDS011;17683;53.360;9.736;2024-02-14T12:52:48;14.77;;;8.27;;
30647;SDS011;17683;53.360;9.736;2024-02-14T12:55:14;9.98;;;8.10;;
30647;SDS011;17683;53.360;9.736;2024-02-14T12:57:40;11.80;;;8.15;;
30647;SDS011;17683;53.360;9.736;2024-02-14T13:00:06;9.15;;;7.95;;
30647;SDS011;17683;53.360;9.736;2024-02-14T13:02:34;9.27;;;7.80;;
30647;SDS011;17683;53.360;9.736;2024-02-14T13:05:00;10.05;;;7.43;;
30647;SDS011;17683;53.360;9.736;2024-02-14T13:07:27;11.15;;;8.75;;
30647;SDS011;17683;53.360;9.736;2024-02-14T13:09:53;12.38;;;8.00;;
30647;SDS011;17683;53.360;9.736;2024-02-14T13:12:20;10.50;;;7.53;;
30647;SDS011;17683;53.360;9.736;2024-02-14T13:14:46;11.43;;;7.90;;
30647;SDS011;17683;53.360;9.736;2024-02-14T13:17:12;10.63;;;8.63;;
30647;SDS011;17683;53.360;9.736;2024-02-14T13:19:39;10.13;;;8.65;;
30647;SDS011;17683;53.360;9.736;2024-02-14T13:22:05;10.40;;;7.72;;
30647;SDS011;17683;53.360;9.736;2024-02-14T13:24:31;11.13;;;7.80;;
30647;SDS011;17683;53.360;9.736;2024-02-14T13:26:56;10.38;;;7.38;;
30647;SDS011;17683;53.360;9.736;2024-02-14T13:29:25;11.95;;;7.38;;
30647;SDS011;17683;53.360;9.736;2024-02-14T13:31:51;8.82;;;7.90;;
30647;SDS011;17683;53.360;9.736;2024-02-14T13:34:17;9.20;;;7.07;;
30647;SDS011;17683;53.360;9.736;2024-02-14T13:36:46;13.38;;;8.20;;
30647;SDS011;17683;53.360;9.736;2024-02-14T13:39:12;10.00;;;7.55;;
30647;SDS011;17683;53.360;9.736;2024-02-14T13:41:38;8.57;;;7.00;;
30647;SDS011;17683;53.360;9.736;2024-02-14T13:44:08;15.50;;;8.10;;
30647;SDS011;17683;53.360;9.736;2024-02-14T13:46:34;12.25;;;7.13;;
30647;SDS011;17683;53.360;9.736;2024-02-14T13:49:00;8.13;;;6.85;;
30647;SDS011;17683;53.360;9.736;2024-02-14T13:51:26;9.07;;;7.50;;
30647;SDS011;17683;53.360;9.736;2024-02-14T13:53:52;8.32;;;6.50;;
30647;SDS011;17683;53.360;9.736;2024-02-14T13:56:19;10.65;;;7.97;;
30647;SDS011;17683;53.360;9.736;2024-02-14T13:58:47;6.85;;;6.03;;
30647;SDS011;17683;53.360;9.736;2024-02-14T14:01:14;10.20;;;7.25;;
30647;SDS011;17683;53.360;9.736;2024-02-14T14:03:40;11.60;;;7.60;;
30647;SDS011;17683;53.360;9.736;2024-02-14T14:06:06;9.55;;;6.63;;
30647;SDS011;17683;53.360;9.736;2024-02-14T14:08:35;9.68;;;6.88;;
30647;SDS011;17683;53.360;9.736;2024-02-14T14:11:04;8.15;;;6.97;;
30647;SDS011;17683;53.360;9.736;2024-02-14T14:13:30;8.07;;;7.00;;
30647;SDS011;17683;53.360;9.736;2024-02-14T14:15:58;8.20;;;6.88;;
30647;SDS011;17683;53.360;9.736;2024-02-14T14:18:26;8.73;;;7.55;;
30647;SDS011;17683;53.360;9.736;2024-02-14T14:20:51;8.15;;;7.35;;
30647;SDS011;17683;53.360;9.736;2024-02-14T14:23:20;10.57;;;7.38;;
30647;SDS011;17683;53.360;9.736;2024-02-14T14:25:46;7.65;;;6.40;;
30647;SDS011;17683;53.360;9.736;2024-02-14T14:28:11;9.95;;;7.68;;
30647;SDS011;17683;53.360;9.736;2024-02-14T14:30:39;10.35;;;7.10;;
30647;SDS011;17683;53.360;9.736;2024-02-14T14:33:05;8.43;;;6.88;;
30647;SDS011;17683;53.360;9.736;2024-02-14T14:35:33;8.75;;;6.60;;
30647;SDS011;17683;53.360;9.736;2024-02-14T14:38:01;6.85;;;6.25;;
30647;SDS011;17683;53.360;9.736;2024-02-14T14:40:30;8.10;;;6.28;;
30647;SDS011;17683;53.360;9.736;2024-02-14T14:42:56;8.50;;;7.10;;
30647;SDS011;17683;53.360;9.736;2024-02-14T14:45:22;8.00;;;6.85;;
30647;SDS011;17683;53.360;9.736;2024-02-14T14:47:48;10.18;;;6.78;;
30647;SDS011;17683;53.360;9.736;2024-02-14T14:50:14;7.10;;;5.55;;